createdAt,value
2022-08-16T00:01:56.661Z,15.10
2022-08-16T00:04:28.843Z,18.30
2022-08-16T00:06:57.158Z,17.70
2022-08-16T00:09:25.901Z,16.60
2022-08-16T00:11:56.148Z,14.90
2022-08-16T00:14:33.148Z,14.10
2022-08-16T00:17:18.319Z,14.40
2022-08-16T00:19:53.317Z,14.80
2022-08-16T00:22:25.351Z,14.90
2022-08-16T00:24:54.927Z,17.10
2022-08-16T00:27:23.717Z,17.20
2022-08-16T00:30:08.603Z,13.90
2022-08-16T00:32:44.293Z,14.60
2022-08-16T00:37:56.699Z,14.30
2022-08-16T00:40:43.829Z,16.30
2022-08-16T00:43:40.844Z,16.70
2022-08-16T00:46:22.340Z,18.10
2022-08-16T00:49:18.996Z,18.30
2022-08-16T00:51:54.889Z,16.50
2022-08-16T00:54:31.169Z,19.30
2022-08-16T00:57:03.541Z,16.40
2022-08-16T00:59:35.738Z,19.90
2022-08-16T01:02:30.238Z,18.10
2022-08-16T01:05:11.262Z,16.10
2022-08-16T01:07:51.815Z,17.50
2022-08-16T01:10:32.706Z,17.40
2022-08-16T01:13:15.836Z,16.20
2022-08-16T01:16:03.066Z,16.50
2022-08-16T01:19:03.703Z,18.40
2022-08-16T01:21:44.590Z,15.30
2022-08-16T01:24:44.614Z,17.60
2022-08-16T01:27:27.305Z,21.40
2022-08-16T01:29:59.500Z,18.40
2022-08-16T01:32:33.251Z,18.40
2022-08-16T01:35:07.033Z,21.20
2022-08-16T01:37:53.838Z,17.00
2022-08-16T01:40:30.745Z,17.90
2022-08-16T01:42:59.248Z,20.60
2022-08-16T01:45:40.548Z,15.60
2022-08-16T01:48:19.299Z,17.00
2022-08-16T01:51:08.381Z,18.30
2022-08-16T01:53:40.699Z,18.60
2022-08-16T01:56:34.647Z,19.30
2022-08-16T01:59:06.032Z,14.60
2022-08-16T02:01:34.931Z,17.80
2022-08-16T02:04:10.283Z,21.90
2022-08-16T02:06:46.792Z,19.40
2022-08-16T02:09:19.908Z,18.00
2022-08-16T02:11:53.765Z,15.10
2022-08-16T02:14:26.512Z,15.00
2022-08-16T02:16:58.047Z,12.80
2022-08-16T02:19:58.409Z,13.30
2022-08-16T02:22:34.706Z,18.00
2022-08-16T02:25:10.384Z,13.90
2022-08-16T02:27:50.873Z,12.80
2022-08-16T02:30:37.032Z,13.70
2022-08-16T02:35:53.736Z,15.10
2022-08-16T02:38:25.123Z,16.70
2022-08-16T02:40:56.784Z,16.80
2022-08-16T02:43:28.279Z,22.10
2022-08-16T02:45:59.138Z,18.30
2022-08-16T02:51:10.642Z,19.20
2022-08-16T02:53:46.218Z,19.80
2022-08-16T02:56:17.264Z,19.00
2022-08-16T02:58:47.672Z,19.70
2022-08-16T03:01:25.048Z,21.80
2022-08-16T03:04:39.315Z,17.20
2022-08-16T03:06:56.524Z,19.10
2022-08-16T03:12:06.177Z,17.40
2022-08-16T03:14:35.917Z,17.30
2022-08-16T03:17:07.955Z,16.80
2022-08-16T03:19:48.006Z,15.70
2022-08-16T03:22:29.361Z,18.50
2022-08-16T03:25:08.449Z,16.00
2022-08-16T03:27:41.201Z,14.40
2022-08-16T03:30:21.383Z,15.60
2022-08-16T03:32:53.757Z,15.60
2022-08-16T03:35:32.713Z,15.90
2022-08-16T03:38:32.559Z,17.10
2022-08-16T03:41:24.325Z,18.50
2022-08-16T03:43:56.903Z,19.90
2022-08-16T03:46:47.883Z,17.60
2022-08-16T03:49:20.490Z,18.30
2022-08-16T03:51:52.762Z,21.20
2022-08-16T03:54:23.509Z,17.50
2022-08-16T03:56:57.598Z,18.90
2022-08-16T03:59:31.756Z,18.30
2022-08-16T04:02:12.231Z,18.30
2022-08-16T04:04:54.290Z,20.20
2022-08-16T04:07:26.246Z,18.30
2022-08-16T04:09:54.421Z,18.40
2022-08-16T04:12:53.172Z,20.80
2022-08-16T04:15:16.871Z,21.50
2022-08-16T04:17:58.021Z,18.10
2022-08-16T04:20:33.705Z,17.70
2022-08-16T04:23:06.295Z,18.30
2022-08-16T04:25:37.459Z,19.10
2022-08-16T04:28:51.633Z,16.10
2022-08-16T04:30:54.308Z,17.50
2022-08-16T04:33:27.156Z,16.10
2022-08-16T04:35:58.326Z,17.10
2022-08-16T04:38:27.724Z,18.50
2022-08-16T04:40:59.797Z,19.60
2022-08-16T04:43:29.269Z,18.90
2022-08-16T04:46:00.286Z,20.50
2022-08-16T04:48:33.981Z,16.80
2022-08-16T04:51:07.913Z,20.90
2022-08-16T04:56:19.928Z,19.20
2022-08-16T04:58:49.122Z,20.20
2022-08-16T05:01:18.893Z,20.40
2022-08-16T05:04:00.262Z,23.80
2022-08-16T05:06:45.268Z,16.70
2022-08-16T05:09:36.498Z,24.10
2022-08-16T05:12:11.107Z,18.60
2022-08-16T05:14:45.333Z,21.10
2022-08-16T05:17:16.587Z,21.20
2022-08-16T05:19:57.011Z,19.30
2022-08-16T05:22:28.318Z,20.50
2022-08-16T05:24:58.589Z,23.30
2022-08-16T05:27:27.716Z,21.00
2022-08-16T05:29:59.298Z,17.60
2022-08-16T05:32:36.482Z,23.80
2022-08-16T05:35:16.556Z,20.00
2022-08-16T05:38:32.386Z,22.70
2022-08-16T05:41:03.542Z,20.90
2022-08-16T05:43:43.593Z,22.20
2022-08-16T05:46:29.453Z,22.70
2022-08-16T05:49:06.049Z,24.00
2022-08-16T05:51:38.569Z,21.00
2022-08-16T05:54:11.682Z,18.70
2022-08-16T05:56:42.954Z,21.50
2022-08-16T05:59:12.860Z,20.60
2022-08-16T06:01:42.063Z,20.80
2022-08-16T06:04:35.056Z,22.20
2022-08-16T06:07:07.067Z,19.90
2022-08-16T06:09:43.544Z,21.00
2022-08-16T06:12:27.446Z,21.50
2022-08-16T06:15:08.072Z,19.60
2022-08-16T06:20:35.328Z,20.80
2022-08-16T06:23:18.244Z,19.00
2022-08-16T06:26:12.861Z,24.40
2022-08-16T06:28:45.611Z,22.60
2022-08-16T06:31:18.291Z,22.10
2022-08-16T06:33:53.463Z,20.00
2022-08-16T06:36:24.312Z,22.70
2022-08-16T06:39:09.536Z,22.00
2022-08-16T06:41:58.974Z,21.60
2022-08-16T06:44:52.410Z,19.90
2022-08-16T06:47:53.810Z,20.00
2022-08-16T06:50:31.533Z,23.40
2022-08-16T06:53:08.274Z,18.70
2022-08-16T06:55:44.806Z,22.00
2022-08-16T06:58:22.345Z,23.40
2022-08-16T07:00:59.865Z,21.10
2022-08-16T07:03:32.473Z,20.70
2022-08-16T07:06:02.431Z,20.90
2022-08-16T07:08:45.099Z,21.30
2022-08-16T07:11:18.392Z,20.20
2022-08-16T07:14:00.637Z,20.00
2022-08-16T07:16:42.184Z,20.70
2022-08-16T07:19:11.589Z,20.60
2022-08-16T07:21:46.598Z,20.50
2022-08-16T07:24:31.181Z,19.30
2022-08-16T07:27:04.638Z,21.40
2022-08-16T07:29:38.225Z,21.70
2022-08-16T07:32:10.311Z,21.70
2022-08-16T07:34:39.969Z,22.00
2022-08-16T07:37:17.854Z,23.40
2022-08-16T07:40:11.139Z,21.50
2022-08-16T07:42:42.570Z,19.70
2022-08-16T07:45:11.737Z,23.10
2022-08-16T07:47:44.649Z,18.10
2022-08-16T07:50:56.075Z,18.80
2022-08-16T07:53:03.320Z,20.30
2022-08-16T07:58:34.904Z,22.30
2022-08-16T08:01:10.367Z,20.20
2022-08-16T08:03:49.157Z,20.80
2022-08-16T08:06:25.050Z,18.50
2022-08-16T08:08:59.316Z,18.80
2022-08-16T08:11:29.868Z,21.90
2022-08-16T08:14:03.572Z,20.80
2022-08-16T08:16:39.935Z,18.60
2022-08-16T08:19:26.569Z,18.20
2022-08-16T08:21:59.286Z,19.00
2022-08-16T08:24:45.517Z,17.70
2022-08-16T08:27:23.181Z,18.60
2022-08-16T08:30:48.982Z,23.80
2022-08-16T08:32:59.423Z,19.50
2022-08-16T08:35:35.168Z,21.50
2022-08-16T08:38:08.675Z,15.60
2022-08-16T08:40:40.546Z,17.20
2022-08-16T08:43:18.262Z,16.20
2022-08-16T08:45:58.051Z,17.60
2022-08-16T08:48:33.791Z,19.90
2022-08-16T08:51:10.340Z,18.50
2022-08-16T08:53:57.713Z,17.40
2022-08-16T08:56:32.421Z,15.90
2022-08-16T08:59:13.510Z,17.90
2022-08-16T09:01:57.014Z,17.40
2022-08-16T09:04:41.286Z,16.50
2022-08-16T09:07:09.944Z,20.40
2022-08-16T09:09:41.183Z,17.70
2022-08-16T09:12:30.230Z,17.60
2022-08-16T09:15:13.603Z,17.00
2022-08-16T09:17:53.630Z,22.70
2022-08-16T09:20:27.824Z,16.30
2022-08-16T09:22:57.253Z,17.20
2022-08-16T09:25:33.804Z,15.50
2022-08-16T09:28:09.510Z,16.20
2022-08-16T09:31:03.275Z,15.90
2022-08-16T09:33:37.024Z,15.60
2022-08-16T09:36:12.042Z,16.20
2022-08-16T09:39:00.039Z,18.70
2022-08-16T09:41:28.329Z,18.40
2022-08-16T09:44:00.746Z,18.80
2022-08-16T09:46:45.577Z,18.70
2022-08-16T09:49:20.112Z,19.90
2022-08-16T09:51:53.714Z,19.90
2022-08-16T09:54:24.037Z,24.30
2022-08-16T09:57:01.556Z,18.40
2022-08-16T09:59:30.646Z,19.00
2022-08-16T10:02:00.521Z,17.10
2022-08-16T10:04:54.533Z,21.50
2022-08-16T10:07:25.742Z,19.30
2022-08-16T10:09:56.492Z,15.00
2022-08-16T10:12:56.848Z,16.40
2022-08-16T10:15:30.315Z,16.70
2022-08-16T10:18:10.707Z,17.50
2022-08-16T10:20:50.101Z,17.10
2022-08-16T10:23:18.625Z,18.50
2022-08-16T10:27:18.631Z,19.00
2022-08-16T10:28:39.874Z,17.70
2022-08-16T10:31:12.011Z,15.80
2022-08-16T10:33:46.222Z,17.50
2022-08-16T10:36:38.151Z,16.00
2022-08-16T10:39:05.508Z,15.90
2022-08-16T10:41:36.831Z,14.70
2022-08-16T10:44:05.217Z,19.00
2022-08-16T10:46:41.766Z,16.00
2022-08-16T10:49:16.735Z,17.30
2022-08-16T10:52:02.536Z,15.10
2022-08-16T10:54:58.582Z,18.20
2022-08-16T10:57:24.436Z,15.20
2022-08-16T10:59:58.693Z,15.70
2022-08-16T11:02:59.636Z,13.30
2022-08-16T11:05:17.554Z,16.30
2022-08-16T11:07:53.559Z,16.50
2022-08-16T11:13:58.180Z,13.20
2022-08-16T11:16:26.494Z,13.00
2022-08-16T11:19:05.611Z,13.70
2022-08-16T11:24:41.919Z,14.20
2022-08-16T11:27:19.531Z,16.90
2022-08-16T11:29:53.054Z,14.10
2022-08-16T11:32:31.379Z,12.60
2022-08-16T11:35:10.795Z,13.80
2022-08-16T11:38:23.425Z,18.20
2022-08-16T11:40:58.183Z,12.70
2022-08-16T11:43:33.275Z,15.70
2022-08-16T11:46:42.810Z,14.60
2022-08-16T11:48:52.756Z,14.60
2022-08-16T11:51:21.197Z,12.30
2022-08-16T11:53:49.405Z,13.30
2022-08-16T11:56:19.780Z,16.40
2022-08-16T11:59:06.736Z,16.00
2022-08-16T12:01:44.635Z,14.40
2022-08-16T12:04:24.148Z,14.70
2022-08-16T12:06:54.577Z,18.70
2022-08-16T12:09:24.881Z,14.90
2022-08-16T12:12:03.078Z,17.20
2022-08-16T12:14:35.498Z,18.20
2022-08-16T12:17:08.227Z,14.90
2022-08-16T12:19:38.014Z,12.80
2022-08-16T12:22:19.179Z,13.20
2022-08-16T12:24:52.238Z,13.40
2022-08-16T12:27:24.467Z,16.10
2022-08-16T12:29:54.059Z,10.50
2022-08-16T12:32:35.818Z,8.10
2022-08-16T12:35:10.725Z,5.60
2022-08-16T12:37:41.532Z,8.10
2022-08-16T12:40:17.230Z,8.60
2022-08-16T12:42:59.004Z,7.70
2022-08-16T12:45:31.126Z,10.20
2022-08-16T12:48:35.059Z,9.20
2022-08-16T12:51:13.618Z,8.10
2022-08-16T12:53:53.313Z,8.30
2022-08-16T12:56:26.285Z,11.90
2022-08-16T12:58:56.613Z,9.70
2022-08-16T13:01:30.780Z,8.80
2022-08-16T13:04:12.337Z,10.60
2022-08-16T13:06:52.528Z,7.90
2022-08-16T13:09:26.040Z,10.80
2022-08-16T13:12:00.722Z,8.10
2022-08-16T13:14:36.649Z,6.90
2022-08-16T13:17:09.032Z,7.00
2022-08-16T13:20:06.146Z,9.20
2022-08-16T13:22:28.151Z,9.20
2022-08-16T13:24:56.394Z,7.60
2022-08-16T13:27:34.899Z,6.70
2022-08-16T13:30:36.656Z,10.80
2022-08-16T13:33:02.277Z,9.90
2022-08-16T13:35:44.068Z,12.90
2022-08-16T13:38:24.245Z,8.30
2022-08-16T13:40:57.280Z,17.50
2022-08-16T13:43:27.419Z,10.50
2022-08-16T13:45:58.103Z,8.60
2022-08-16T13:48:42.641Z,10.00
2022-08-16T13:51:20.006Z,8.90
2022-08-16T13:53:59.777Z,14.10
2022-08-16T13:56:37.884Z,12.10
2022-08-16T13:59:16.516Z,13.80
2022-08-16T14:01:59.561Z,17.80
2022-08-16T14:04:37.972Z,23.70
2022-08-16T14:07:12.359Z,15.90
2022-08-16T14:09:55.267Z,11.90
2022-08-16T14:12:27.116Z,13.40
2022-08-16T14:14:57.383Z,16.70
2022-08-16T14:17:28.684Z,13.20
2022-08-16T14:19:59.605Z,14.60
2022-08-16T14:25:12.773Z,11.80
2022-08-16T14:27:45.167Z,12.30
2022-08-16T14:30:16.997Z,14.40
2022-08-16T14:32:50.992Z,13.00
2022-08-16T14:35:29.276Z,11.00
2022-08-16T14:38:18.680Z,14.40
2022-08-16T14:40:55.145Z,16.40
2022-08-16T14:43:29.707Z,12.30
2022-08-16T14:45:59.189Z,16.50
2022-08-16T14:48:27.565Z,15.60
2022-08-16T14:50:56.160Z,14.40
2022-08-16T14:53:26.404Z,15.00
2022-08-16T14:55:55.389Z,13.90
2022-08-16T14:58:35.080Z,16.90
2022-08-16T15:01:10.137Z,13.10
2022-08-16T15:03:38.936Z,14.00
2022-08-16T15:06:14.633Z,15.40
2022-08-16T15:11:14.630Z,11.70
2022-08-16T15:13:43.103Z,13.50
2022-08-16T15:16:11.885Z,12.10
2022-08-16T15:18:40.469Z,12.20
2022-08-16T15:21:09.360Z,10.60
2022-08-16T15:23:40.450Z,11.60
2022-08-16T15:26:09.806Z,13.10
2022-08-16T15:28:38.493Z,11.00
2022-08-16T15:31:10.495Z,16.10
2022-08-16T15:33:50.961Z,13.00
2022-08-16T15:36:23.491Z,12.60
2022-08-16T15:39:06.959Z,11.80
2022-08-16T15:41:43.622Z,14.20
2022-08-16T15:44:25.095Z,13.50
2022-08-16T15:46:59.978Z,15.10
2022-08-16T15:49:37.273Z,12.20
2022-08-16T15:52:18.195Z,14.60
2022-08-16T15:54:53.566Z,12.40
2022-08-16T15:57:26.707Z,13.40
2022-08-16T16:00:04.076Z,12.20
2022-08-16T16:02:40.975Z,14.30
2022-08-16T16:05:10.199Z,12.40
2022-08-16T16:07:40.778Z,13.00
2022-08-16T16:10:29.492Z,13.40
2022-08-16T16:13:02.969Z,12.30
2022-08-16T16:15:34.949Z,14.40
2022-08-16T16:18:10.091Z,14.90
2022-08-16T16:20:43.977Z,12.50
2022-08-16T16:23:12.858Z,11.90
2022-08-16T16:25:44.389Z,13.20
2022-08-16T16:29:06.100Z,11.90
2022-08-16T16:31:10.353Z,14.80
2022-08-16T16:33:43.574Z,12.60
2022-08-16T16:36:14.923Z,11.90
2022-08-16T16:38:47.881Z,13.10
2022-08-16T16:41:22.711Z,13.30
2022-08-16T16:43:53.615Z,11.70
2022-08-16T16:46:41.451Z,14.00
2022-08-16T16:49:14.804Z,14.10
2022-08-16T16:51:47.237Z,20.80
2022-08-16T16:54:27.551Z,19.00
2022-08-16T16:56:58.391Z,13.40
2022-08-16T16:59:27.987Z,15.30
2022-08-16T17:02:41.571Z,12.50
2022-08-16T17:04:48.462Z,13.70
2022-08-16T17:07:17.948Z,17.10
2022-08-16T17:09:53.725Z,13.80
2022-08-16T17:12:25.421Z,14.10
2022-08-16T17:15:11.906Z,10.60
2022-08-16T17:19:01.987Z,12.60
2022-08-16T17:20:32.022Z,13.30
2022-08-16T17:23:00.162Z,13.90
2022-08-16T17:25:36.219Z,14.20
2022-08-16T17:29:00.096Z,12.20
2022-08-16T17:30:59.299Z,12.30
2022-08-16T17:33:36.823Z,15.10
2022-08-16T17:36:08.655Z,13.10
2022-08-16T17:38:43.758Z,13.10
2022-08-16T17:41:13.990Z,14.70
2022-08-16T17:43:44.935Z,14.60
2022-08-16T17:46:41.228Z,12.60
2022-08-16T17:49:06.586Z,14.90
2022-08-16T17:51:34.764Z,18.80
2022-08-16T17:54:03.812Z,11.80
2022-08-16T17:56:32.143Z,15.00
2022-08-16T17:59:01.432Z,17.90
2022-08-16T18:01:29.671Z,14.90
2022-08-16T18:04:07.180Z,17.20
2022-08-16T18:06:39.850Z,14.30
2022-08-16T18:09:09.088Z,14.00
2022-08-16T18:11:40.993Z,20.20
2022-08-16T18:14:10.931Z,19.20
2022-08-16T18:16:40.910Z,17.50
2022-08-16T18:19:10.148Z,17.70
2022-08-16T18:21:57.290Z,17.10
2022-08-16T18:24:29.427Z,18.40
2022-08-16T18:27:24.811Z,21.90
2022-08-16T18:29:47.103Z,15.50
2022-08-16T18:32:23.478Z,17.80
2022-08-16T18:34:54.786Z,16.50
2022-08-16T18:37:24.325Z,16.20
2022-08-16T18:39:52.797Z,14.30
2022-08-16T18:42:21.185Z,14.30
2022-08-16T18:44:49.564Z,15.40
2022-08-16T18:47:17.839Z,24.80
2022-08-16T18:49:46.015Z,41.00
2022-08-16T18:52:24.889Z,47.00
2022-08-16T18:54:58.845Z,42.40
2022-08-16T18:57:31.535Z,29.10
2022-08-16T18:59:59.701Z,30.50
2022-08-16T19:02:57.618Z,34.20
2022-08-16T19:05:27.495Z,36.20
2022-08-16T19:07:55.661Z,34.50
2022-08-16T19:10:24.044Z,24.20
2022-08-16T19:12:52.469Z,32.20
2022-08-16T19:15:26.223Z,30.90
2022-08-16T19:17:54.984Z,28.80
2022-08-16T19:20:26.260Z,24.10
2022-08-16T19:23:06.123Z,27.70
2022-08-16T19:25:47.110Z,26.40
2022-08-16T19:28:49.333Z,23.30
2022-08-16T19:31:25.925Z,19.60
2022-08-16T19:33:56.792Z,18.70
2022-08-16T19:36:37.208Z,20.50
2022-08-16T19:39:09.368Z,18.20
2022-08-16T19:41:41.461Z,23.30
2022-08-16T19:44:09.837Z,19.30
2022-08-16T19:46:38.123Z,18.70
2022-08-16T19:49:06.488Z,18.80
2022-08-16T19:51:34.666Z,22.30
2022-08-16T19:54:02.894Z,18.60
2022-08-16T19:56:31.057Z,17.40
2022-08-16T20:01:50.399Z,14.70
2022-08-16T20:04:18.981Z,15.80
2022-08-16T20:06:47.371Z,17.90
2022-08-16T20:09:16.162Z,16.90
2022-08-16T20:11:48.626Z,18.80
2022-08-16T20:14:24.128Z,18.60
2022-08-16T20:16:58.693Z,15.40
2022-08-16T20:19:28.248Z,15.40
2022-08-16T20:21:59.190Z,20.40
2022-08-16T20:24:34.747Z,18.90
2022-08-16T20:27:07.809Z,18.90
2022-08-16T20:29:38.305Z,19.40
2022-08-16T20:32:08.730Z,18.90
2022-08-16T20:34:37.056Z,15.70
2022-08-16T20:37:06.616Z,18.80
2022-08-16T20:39:35.245Z,16.00
2022-08-16T20:42:03.780Z,19.30
2022-08-16T20:44:32.265Z,18.70
2022-08-16T20:47:00.442Z,23.40
2022-08-16T20:49:28.711Z,17.50
2022-08-16T20:51:59.526Z,18.40
2022-08-16T20:54:29.771Z,15.20
2022-08-16T20:56:57.948Z,18.00
2022-08-16T20:59:28.988Z,19.50
2022-08-16T21:01:58.190Z,19.90
2022-08-16T21:04:28.712Z,21.60
2022-08-16T21:06:58.630Z,19.10
2022-08-16T21:09:32.844Z,21.00
2022-08-16T21:12:06.221Z,17.70
2022-08-16T21:14:34.921Z,21.60
2022-08-16T21:17:06.089Z,20.50
2022-08-16T21:19:35.115Z,21.80
2022-08-16T21:22:17.777Z,20.40
2022-08-16T21:24:47.049Z,23.60
2022-08-16T21:27:17.399Z,21.10
2022-08-16T21:29:48.851Z,21.30
2022-08-16T21:35:10.698Z,17.70
2022-08-16T21:37:40.305Z,15.90
2022-08-16T21:40:10.038Z,16.30
2022-08-16T21:42:41.102Z,17.00
2022-08-16T21:45:13.068Z,18.10
2022-08-16T21:47:41.866Z,21.00
2022-08-16T21:50:12.132Z,20.10
2022-08-16T21:52:40.615Z,19.20
2022-08-16T21:55:09.589Z,20.60
2022-08-16T21:57:37.783Z,20.80
2022-08-16T22:00:12.628Z,17.60
2022-08-16T22:02:42.014Z,20.80
2022-08-16T22:05:10.290Z,21.10
2022-08-16T22:07:38.465Z,20.40
2022-08-16T22:11:06.791Z,25.10
2022-08-16T22:12:56.318Z,22.10
2022-08-16T22:15:25.815Z,22.20
2022-08-16T22:17:56.384Z,22.50
2022-08-16T22:20:28.620Z,18.40
2022-08-16T22:23:10.926Z,19.60
2022-08-16T22:25:42.170Z,20.40
2022-08-16T22:28:11.369Z,24.60
2022-08-16T22:30:40.308Z,21.50
2022-08-16T22:33:29.120Z,23.90
2022-08-16T22:35:59.956Z,22.10
2022-08-16T22:38:53.724Z,20.10
2022-08-16T22:41:17.832Z,20.30
2022-08-16T22:43:49.975Z,20.30
2022-08-16T22:46:19.811Z,23.20
2022-08-16T22:48:50.807Z,20.50
2022-08-16T22:51:21.155Z,19.40
2022-08-16T22:53:49.530Z,26.00
2022-08-16T22:56:18.233Z,20.20
2022-08-16T22:58:46.749Z,18.80
2022-08-16T23:01:16.795Z,21.20
2022-08-16T23:03:45.431Z,23.30
2022-08-16T23:06:14.701Z,19.10
2022-08-16T23:08:44.235Z,24.80
2022-08-16T23:11:21.442Z,20.50
2022-08-16T23:13:55.714Z,19.70
2022-08-16T23:16:33.822Z,22.10
2022-08-16T23:19:05.165Z,21.90
2022-08-16T23:21:35.694Z,24.90
2022-08-16T23:24:05.031Z,20.50
2022-08-16T23:26:46.192Z,22.50
2022-08-16T23:29:24.634Z,19.80
2022-08-16T23:31:57.597Z,19.00
2022-08-16T23:34:27.936Z,16.20
2022-08-16T23:36:56.647Z,17.60
2022-08-16T23:39:25.472Z,19.20
2022-08-16T23:41:53.750Z,19.40
2022-08-16T23:44:41.890Z,17.00
2022-08-16T23:47:10.168Z,20.90
2022-08-16T23:49:58.508Z,18.00
2022-08-16T23:52:42.152Z,19.30
2022-08-16T23:55:16.308Z,22.90
2022-08-16T23:57:46.582Z,23.70
